Impacts METAR Board INFO
IDs:

KDEN - Denver Intl, CO, US

Updated at: 1929 UTC 17 Dec 2017
Potential Impact None Slight Moderate High
Time17/07Z 17/08Z 17/09Z 17/10Z 17/11Z 17/12Z 17/13Z 17/14Z 17/15Z 17/16Z 17/17Z 17/18Z 17/19Z
VIS10 0.75 0.5 0.5 0.5 0.5 2 9 9 10 10 10 10
CIG4 3 2 2 3 2 4 15 25 24 22 20 150
CoverOVCOVCOVCOVCOVXOVCOVCOVCOVCOVCOVCOVCBKN
FltCatLIFRLIFRLIFRLIFRLIFRLIFRLIFRMVFRMVFRMVFRMVFRMVFRVFR
WX--BRBRBRBRBR---SN----------
WDir40500012016011000150110180210
WSpd5 3 0 0 4 3 3 0 0 4 4 4 9
WGst-- -- -- -- -- -- -- -- -- -- -- -- --
Raw hourly METARs
KDEN 170653Z 04005KT 10SM OVC004 M02/M03 A2993 RMK AO2 SLP129 T10171033 401061022 $
KDEN 170753Z 05003KT 3/4SM R35L/P6000FT BR FEW001 OVC003 M02/M03 A2993 RMK AO2 SFC VIS 1 1/4 SNB20E40 SLP126 VCSH P0000 T10221033 $
KDEN 170853Z 00000KT 1/2SM R35L/4000VP6000FT BR OVC002 M02/M03 A2993 RMK AO2 SFC VIS 1 SLP123 60000 T10171028 56001 $
KDEN 170953Z 00000KT 1/2SM R35L/P6000FT BR OVC002 M02/M03 A2993 RMK AO2 SFC VIS 1 1/4 SLP129 I1000 T10221033 $
KDEN 171053Z 12004KT 1/2SM R35L/P6000FT BR VV003 M02/M03 A2994 RMK AO2 SFC VIS 1 SLP136 I1000 T10221033 $
KDEN 171153Z 16003KT 1/2SM R35L/P6000FT BR OVC002 M02/M03 A2996 RMK AO2 SFC VIS 3 SLP156 60000 I6000 T10221028 11017 21022 53009 $
KDEN 171253Z 11003KT 2SM BKN004 OVC023 M02/M03 A2998 RMK AO2 SFC VIS 9 SLP164 T10221033 $
KDEN 171401Z 00000KT 9SM -SN SCT006 OVC015 M02/M03 A3001 RMK AO2 SNB00 P0000 T10171033 $
KDEN 171453Z 00000KT 9SM SCT015 OVC025 M02/M03 A3001 RMK AO2 SNB00E11 SLP177 P0000 60000 T10171033 51014 $
KDEN 171553Z 15004KT 10SM FEW016 OVC024 M02/M03 A3001 RMK AO2 SLP178 T10171033 $
KDEN 171653Z 11004KT 10SM FEW015 OVC022 M01/M04 A3001 RMK AO2 SLP176 T10111039 $
KDEN 171753Z 18004KT 10SM OVC020 00/M04 A2999 RMK AO2 SLP168 60000 T00001044 10000 21022 58006 $
KDEN 171900Z 21009KT 10SM SCT020 SCT060 BKN150 02/M05 A2994 RMK AO2 T00221050 $